createdAt,value
2017-08-29T00:00:43.490Z,12.96
2017-08-29T00:01:43.549Z,12.92
2017-08-29T00:02:43.917Z,12.98
2017-08-29T00:03:43.339Z,12.92
2017-08-29T00:04:44.288Z,12.92
2017-08-29T00:05:44.036Z,12.92
2017-08-29T00:06:44.343Z,12.94
2017-08-29T00:07:44.483Z,12.99
2017-08-29T00:08:44.416Z,12.99
2017-08-29T00:09:44.126Z,12.96
2017-08-29T00:10:44.517Z,12.95
2017-08-29T00:11:44.553Z,12.96
2017-08-29T00:12:44.570Z,12.94
2017-08-29T00:13:44.618Z,12.95
2017-08-29T00:14:44.609Z,12.96
2017-08-29T00:15:44.637Z,12.92
2017-08-29T00:16:44.373Z,12.94
2017-08-29T00:17:45.045Z,12.88
2017-08-29T00:18:44.748Z,12.88
2017-08-29T00:19:45.410Z,12.83
2017-08-29T00:20:45.417Z,12.89
2017-08-29T00:21:45.183Z,12.89
2017-08-29T00:22:45.483Z,12.86
2017-08-29T00:23:45.243Z,12.8
2017-08-29T00:24:45.273Z,12.77
2017-08-29T00:25:45.584Z,12.76
2017-08-29T00:26:45.634Z,12.69
2017-08-29T00:27:45.648Z,12.8
2017-08-29T00:28:45.349Z,12.73
2017-08-29T00:29:45.717Z,12.77
2017-08-29T00:31:40.132Z,12.76
2017-08-29T00:32:08.429Z,12.66
2017-08-29T00:33:08.189Z,12.73
2017-08-29T00:34:08.186Z,12.77
2017-08-29T00:35:08.507Z,12.83
2017-08-29T00:36:08.581Z,12.88
2017-08-29T00:37:07.995Z,12.71
2017-08-29T00:38:08.713Z,12.77
2017-08-29T00:39:08.426Z,12.8
2017-08-29T00:40:08.412Z,12.69
2017-08-29T00:41:08.756Z,12.7
2017-08-29T00:42:09.321Z,12.76
2017-08-29T00:43:09.047Z,12.71
2017-08-29T00:44:09.381Z,12.63
2017-08-29T00:45:09.513Z,12.74
2017-08-29T00:46:09.476Z,12.69
2017-08-29T00:47:09.511Z,12.66
2017-08-29T00:48:09.511Z,12.59
2017-08-29T00:49:09.545Z,12.55
2017-08-29T00:50:09.023Z,12.53
2017-08-29T00:51:09.653Z,12.55
2017-08-29T00:52:09.686Z,12.58
2017-08-29T00:53:09.717Z,12.55
2017-08-29T00:54:09.441Z,12.62
2017-08-29T00:55:10.154Z,12.61
2017-08-29T00:56:09.913Z,12.56
2017-08-29T00:57:09.883Z,12.53
2017-08-29T00:58:09.949Z,12.59
2017-08-29T00:59:09.974Z,12.52
2017-08-29T01:00:10.304Z,12.53
2017-08-29T01:01:10.342Z,12.48
2017-08-29T01:02:10.080Z,12.58
2017-08-29T01:03:10.408Z,12.48
2017-08-29T01:04:10.443Z,12.56
2017-08-29T01:05:10.485Z,12.56
2017-08-29T01:06:10.495Z,12.45
2017-08-29T01:07:10.554Z,12.47
2017-08-29T01:08:09.970Z,12.53
2017-08-29T01:09:10.906Z,12.51
2017-08-29T01:10:10.949Z,12.51
2017-08-29T01:11:10.991Z,12.44
2017-08-29T01:12:11.006Z,12.4
2017-08-29T01:13:11.052Z,12.43
2017-08-29T01:14:11.074Z,12.41
2017-08-29T01:15:10.815Z,12.41
2017-08-29T01:16:11.131Z,12.43
2017-08-29T01:17:11.789Z,12.47
2017-08-29T01:18:11.798Z,12.28
2017-08-29T01:19:11.834Z,12.4
2017-08-29T01:20:11.909Z,12.33
2017-08-29T01:21:11.988Z,12.37
2017-08-29T01:22:11.982Z,12.29
2017-08-29T01:23:12.059Z,12.23
2017-08-29T01:24:12.047Z,12.28
2017-08-29T01:25:12.391Z,12.28
2017-08-29T01:26:12.421Z,12.26
2017-08-29T01:27:12.133Z,12.28
2017-08-29T01:28:12.494Z,12.26
2017-08-29T01:29:12.542Z,12.25
2017-08-29T01:30:12.566Z,12.23
2017-08-29T01:31:12.263Z,12.28
2017-08-29T01:32:12.612Z,12.34
2017-08-29T01:33:12.342Z,12.16
2017-08-29T01:34:12.681Z,12.34
2017-08-29T01:35:12.708Z,12.22
2017-08-29T01:36:12.102Z,12.23
2017-08-29T01:37:12.759Z,12.28
2017-08-29T01:38:12.766Z,12.25
2017-08-29T01:39:13.474Z,12.19
2017-08-29T01:40:13.503Z,12.04
2017-08-29T01:41:13.507Z,12.1
2017-08-29T01:42:13.545Z,12.1
2017-08-29T01:43:13.583Z,12.18
2017-08-29T01:44:13.605Z,12.2
2017-08-29T01:45:13.632Z,12.23
2017-08-29T01:46:13.676Z,12.23
2017-08-29T01:47:13.390Z,12.28
2017-08-29T01:48:13.730Z,12.28
2017-08-29T01:49:13.459Z,12.2
2017-08-29T01:50:13.191Z,12.19
2017-08-29T01:51:13.882Z,12.08
2017-08-29T01:52:13.893Z,12.05
2017-08-29T01:53:14.214Z,12.1
2017-08-29T01:54:14.242Z,12.11
2017-08-29T01:55:14.283Z,12.03
2017-08-29T01:56:14.643Z,12.03
2017-08-29T01:57:14.365Z,12.01
2017-08-29T01:58:14.397Z,12.08
2017-08-29T01:59:14.730Z,12.08
2017-08-29T02:00:14.764Z,12.03
2017-08-29T02:01:14.802Z,12.11
2017-08-29T02:02:14.499Z,12.11
2017-08-29T02:03:14.862Z,12.05
2017-08-29T02:04:14.895Z,12.13
2017-08-29T02:05:14.303Z,12.11
2017-08-29T02:06:14.627Z,12.1
2017-08-29T02:07:14.945Z,12.03
2017-08-29T02:08:15.637Z,12.08
2017-08-29T02:09:15.006Z,12.03
2017-08-29T02:10:15.034Z,12.01
2017-08-29T02:11:15.640Z,11.94
2017-08-29T02:12:15.701Z,12
2017-08-29T02:13:15.409Z,11.94
2017-08-29T02:14:15.997Z,11.95
2017-08-29T02:15:16.033Z,11.91
2017-08-29T02:16:16.067Z,12.03
2017-08-29T02:17:16.105Z,12.1
2017-08-29T02:18:16.141Z,12.07
2017-08-29T02:19:16.159Z,12.1
2017-08-29T02:20:16.211Z,12.04
2017-08-29T02:21:16.222Z,12
2017-08-29T02:22:15.981Z,11.94
2017-08-29T02:23:16.602Z,11.89
2017-08-29T02:24:16.607Z,11.97
2017-08-29T02:25:16.431Z,11.98
2017-08-29T02:26:17.128Z,12
2017-08-29T02:27:17.137Z,11.97
2017-08-29T02:28:16.892Z,11.88
2017-08-29T02:29:17.552Z,11.95
2017-08-29T02:30:17.555Z,11.91
2017-08-29T02:31:16.941Z,11.98
2017-08-29T02:32:17.609Z,11.86
2017-08-29T02:33:17.314Z,11.86
2017-08-29T02:34:17.913Z,11.88
2017-08-29T02:35:17.952Z,11.94
2017-08-29T02:36:18.004Z,11.89
2017-08-29T02:37:18.017Z,11.85
2017-08-29T02:38:18.048Z,11.91
2017-08-29T02:39:18.079Z,11.85
2017-08-29T02:40:18.216Z,11.89
2017-08-29T02:41:18.141Z,11.97
2017-08-29T02:42:17.886Z,11.97
2017-08-29T02:43:18.525Z,11.97
2017-08-29T02:44:18.550Z,11.91
2017-08-29T02:45:18.275Z,11.88
2017-08-29T02:46:18.621Z,11.94
2017-08-29T02:47:18.650Z,11.82
2017-08-29T02:48:18.684Z,11.84
2017-08-29T02:49:18.712Z,11.84
2017-08-29T02:50:18.741Z,11.82
2017-08-29T02:51:18.808Z,11.88
2017-08-29T02:52:18.514Z,11.85
2017-08-29T02:53:18.856Z,11.88
2017-08-29T02:54:18.892Z,11.85
2017-08-29T02:55:19.227Z,11.89
2017-08-29T02:56:19.257Z,11.86
2017-08-29T02:57:19.554Z,11.79
2017-08-29T02:58:19.581Z,11.81
2017-08-29T02:59:19.614Z,11.85
2017-08-29T03:00:19.643Z,11.71
2017-08-29T03:01:19.684Z,11.68
2017-08-29T03:02:19.389Z,11.7
2017-08-29T03:03:19.738Z,11.7
2017-08-29T03:04:19.811Z,11.7
2017-08-29T03:05:19.802Z,11.68
2017-08-29T03:06:19.855Z,11.75
2017-08-29T03:07:19.883Z,11.66
2017-08-29T03:08:19.586Z,11.73
2017-08-29T03:09:19.926Z,11.68
2017-08-29T03:10:19.959Z,11.68
2017-08-29T03:11:19.994Z,11.68
2017-08-29T03:12:20.296Z,11.71
2017-08-29T03:13:20.033Z,11.82
2017-08-29T03:14:20.349Z,11.76
2017-08-29T03:15:20.484Z,11.75
2017-08-29T03:16:20.429Z,11.66
2017-08-29T03:17:20.472Z,11.71
2017-08-29T03:18:20.153Z,11.68
2017-08-29T03:19:20.511Z,11.71
2017-08-29T03:20:20.231Z,11.75
2017-08-29T03:21:20.856Z,11.67
2017-08-29T03:22:20.566Z,11.71
2017-08-29T03:23:20.965Z,11.61
2017-08-29T03:24:20.942Z,11.61
2017-08-29T03:25:20.672Z,11.57
2017-08-29T03:26:21.298Z,11.49
2017-08-29T03:27:21.017Z,11.59
2017-08-29T03:28:21.357Z,11.59
2017-08-29T03:29:21.084Z,11.56
2017-08-29T03:30:21.444Z,11.56
2017-08-29T03:31:21.452Z,11.45
2017-08-29T03:32:21.188Z,11.57
2017-08-29T03:33:21.524Z,11.45
2017-08-29T03:34:21.813Z,11.53
2017-08-29T03:35:21.872Z,11.45
2017-08-29T03:36:21.869Z,11.48
2017-08-29T03:37:21.932Z,11.52
2017-08-29T03:38:21.964Z,11.43
2017-08-29T03:39:21.969Z,11.48
2017-08-29T03:40:22.000Z,11.45
2017-08-29T03:41:22.344Z,11.41
2017-08-29T03:42:22.374Z,11.34
2017-08-29T03:43:22.104Z,11.43
2017-08-29T03:44:21.861Z,11.41
2017-08-29T03:45:22.794Z,11.41
2017-08-29T03:46:22.845Z,11.38
2017-08-29T03:47:22.856Z,11.38
2017-08-29T03:48:22.904Z,11.31
2017-08-29T03:49:22.940Z,11.39
2017-08-29T03:50:23.254Z,11.38
2017-08-29T03:51:23.270Z,11.34
2017-08-29T03:52:23.314Z,11.31
2017-08-29T03:53:22.704Z,11.28
2017-08-29T03:54:23.049Z,11.27
2017-08-29T03:55:23.680Z,11.26
2017-08-29T03:56:23.383Z,11.26
2017-08-29T03:57:23.730Z,11.24
2017-08-29T03:58:23.751Z,11.24
2017-08-29T03:59:23.459Z,11.15
2017-08-29T04:00:24.016Z,11.27
2017-08-29T04:01:23.892Z,11.27
2017-08-29T04:02:23.927Z,11.28
2017-08-29T04:03:23.957Z,11.2
2017-08-29T04:04:23.662Z,11.2
2017-08-29T04:05:24.015Z,11.16
2017-08-29T04:06:24.430Z,11.27
2017-08-29T04:07:24.247Z,11.3
2017-08-29T04:08:24.536Z,11.3
2017-08-29T04:09:24.523Z,11.21
2017-08-29T04:10:24.704Z,11.15
2017-08-29T04:11:24.584Z,11.27
2017-08-29T04:12:24.285Z,11.2
2017-08-29T04:13:24.653Z,11.16
2017-08-29T04:14:24.680Z,11.2
2017-08-29T04:15:24.714Z,11.27
2017-08-29T04:16:24.749Z,11.21
2017-08-29T04:17:24.461Z,11.28
2017-08-29T04:18:25.193Z,11.13
2017-08-29T04:19:24.916Z,11.18
2017-08-29T04:20:24.944Z,11.15
2017-08-29T04:21:24.968Z,11.16
2017-08-29T04:22:25.669Z,11.16
2017-08-29T04:23:25.706Z,11.2
2017-08-29T04:24:25.425Z,11.15
2017-08-29T04:25:25.452Z,11.23
2017-08-29T04:26:25.470Z,11.16
2017-08-29T04:27:25.864Z,11.2
2017-08-29T04:28:25.886Z,11.28
2017-08-29T04:29:25.923Z,11.28
2017-08-29T04:30:25.955Z,11.26
2017-08-29T04:31:25.991Z,11.35
2017-08-29T04:32:26.020Z,11.42
2017-08-29T04:33:25.726Z,11.43
2017-08-29T04:34:26.079Z,11.39
2017-08-29T04:35:26.116Z,11.39
2017-08-29T04:36:25.809Z,11.39
2017-08-29T04:37:26.164Z,11.43
2017-08-29T04:38:25.885Z,11.43
2017-08-29T04:39:26.244Z,11.49
2017-08-29T04:40:26.760Z,11.45
2017-08-29T04:41:26.790Z,11.42
2017-08-29T04:42:26.815Z,11.56
2017-08-29T04:43:26.853Z,11.66
2017-08-29T04:44:26.879Z,11.7
2017-08-29T04:45:26.929Z,11.67
2017-08-29T04:46:26.957Z,11.67
2017-08-29T04:47:26.980Z,11.7
2017-08-29T04:48:27.008Z,11.68
2017-08-29T04:49:27.044Z,11.71
2017-08-29T04:50:27.070Z,11.64
2017-08-29T04:51:27.101Z,11.66
2017-08-29T04:52:27.131Z,11.75
2017-08-29T04:53:27.166Z,11.7
2017-08-29T04:54:27.198Z,11.68
2017-08-29T04:55:26.913Z,11.7
2017-08-29T04:56:27.264Z,11.7
2017-08-29T04:57:27.296Z,11.7
2017-08-29T04:58:27.006Z,11.78
2017-08-29T04:59:27.396Z,11.76
2017-08-29T05:00:27.427Z,11.76
2017-08-29T05:01:27.466Z,11.79
2017-08-29T05:02:27.535Z,11.81
2017-08-29T05:03:27.960Z,11.82
2017-08-29T05:04:28.382Z,11.79
2017-08-29T05:05:28.414Z,11.85
2017-08-29T05:06:28.135Z,11.81
2017-08-29T05:07:28.478Z,11.81
2017-08-29T05:08:28.507Z,11.81
2017-08-29T05:09:28.236Z,11.89
2017-08-29T05:10:28.263Z,11.94
2017-08-29T05:11:28.287Z,11.89
2017-08-29T05:12:28.320Z,11.89
2017-08-29T05:13:28.730Z,11.98
2017-08-29T05:14:28.448Z,11.89
2017-08-29T05:15:28.794Z,12.08
2017-08-29T05:16:28.821Z,12.08
2017-08-29T05:17:28.848Z,12.22
2017-08-29T05:18:28.883Z,12.28
2017-08-29T05:19:28.936Z,12.25
2017-08-29T05:20:28.612Z,12.44
2017-08-29T05:21:29.397Z,12.48
2017-08-29T05:22:29.389Z,12.53
2017-08-29T05:23:29.105Z,12.62
2017-08-29T05:24:29.453Z,12.71
2017-08-29T05:25:29.479Z,12.71
2017-08-29T05:26:29.508Z,12.73
2017-08-29T05:27:29.557Z,12.84
2017-08-29T05:28:29.573Z,12.86
2017-08-29T05:29:29.611Z,12.94
2017-08-29T05:30:29.648Z,12.98
2017-08-29T05:31:29.675Z,12.96
2017-08-29T05:32:29.387Z,13.1
2017-08-29T05:33:29.792Z,13.03
2017-08-29T05:34:29.816Z,13.1
2017-08-29T05:35:29.515Z,13.19
2017-08-29T05:36:30.251Z,13.29
2017-08-29T05:37:30.272Z,13.63
2017-08-29T05:38:30.306Z,13.94
2017-08-29T05:39:30.023Z,14.38
2017-08-29T05:40:30.446Z,14.59
2017-08-29T05:41:30.472Z,14.71
2017-08-29T05:42:30.198Z,14.64
2017-08-29T05:43:30.234Z,14.66
2017-08-29T05:44:30.259Z,14.74
2017-08-29T05:45:30.601Z,14.8
2017-08-29T05:46:30.642Z,14.9
2017-08-29T05:47:30.666Z,15.12
2017-08-29T05:48:30.704Z,15.23
2017-08-29T05:49:30.732Z,15.2
2017-08-29T05:50:30.772Z,15.07
2017-08-29T05:51:30.802Z,15.04
2017-08-29T05:52:30.503Z,15.04
2017-08-29T05:53:30.906Z,15.02
2017-08-29T05:54:30.957Z,15.04
2017-08-29T05:55:30.980Z,15.07
2017-08-29T05:56:31.025Z,15.07
2017-08-29T05:57:31.035Z,15.22
2017-08-29T05:58:31.126Z,15.44
2017-08-29T05:59:30.830Z,15.81
2017-08-29T06:00:31.134Z,15.96
2017-08-29T06:01:31.174Z,16.34
2017-08-29T06:02:30.902Z,16.74
2017-08-29T06:03:31.636Z,17.13
2017-08-29T06:04:32.049Z,17.66
2017-08-29T06:05:32.085Z,18.19
2017-08-29T06:06:32.114Z,18.72
2017-08-29T06:07:32.265Z,19.23
2017-08-29T06:08:31.871Z,19.71
2017-08-29T06:09:32.307Z,20.27
2017-08-29T06:10:32.677Z,20.81
2017-08-29T06:11:32.403Z,21.21
2017-08-29T06:12:33.399Z,21.56
2017-08-29T06:13:33.216Z,22.14
2017-08-29T06:14:33.249Z,22.54
2017-08-29T06:15:33.302Z,23.06
2017-08-29T06:16:33.308Z,23.66
2017-08-29T06:17:33.356Z,24.24
2017-08-29T06:18:33.083Z,24.97
2017-08-29T06:19:33.120Z,25.45
2017-08-29T06:20:33.873Z,26
2017-08-29T06:21:33.914Z,26.59
2017-08-29T06:22:33.939Z,26.94
2017-08-29T06:23:33.980Z,27.12
2017-08-29T06:24:34.021Z,27.36
2017-08-29T06:25:34.061Z,27.53
2017-08-29T06:26:34.090Z,27.91
2017-08-29T06:27:33.821Z,28.21
2017-08-29T06:28:34.221Z,28.51
2017-08-29T06:29:34.259Z,28.98
2017-08-29T06:30:34.294Z,29.32
2017-08-29T06:31:34.331Z,29.5
2017-08-29T06:32:34.370Z,29.77
2017-08-29T06:33:34.413Z,30.02
2017-08-29T06:34:34.442Z,30.22
2017-08-29T06:35:34.487Z,30.19
2017-08-29T06:36:34.221Z,30.22
2017-08-29T06:37:34.960Z,30.28
2017-08-29T06:38:34.694Z,30.21
2017-08-29T06:39:35.110Z,30.26
2017-08-29T06:40:35.527Z,30.35
2017-08-29T06:41:35.563Z,30.34
2017-08-29T06:42:35.622Z,30.32
2017-08-29T06:43:35.973Z,30.25
2017-08-29T06:44:36.022Z,30.45
2017-08-29T06:45:36.468Z,30.31
2017-08-29T06:46:36.565Z,30.25
2017-08-29T06:47:36.983Z,30.34
2017-08-29T06:48:37.027Z,30.34
2017-08-29T06:49:37.067Z,30.57
2017-08-29T06:50:37.107Z,30.77
2017-08-29T06:51:36.830Z,30.99
2017-08-29T06:52:37.182Z,31.04
2017-08-29T06:53:36.888Z,31.25
2017-08-29T06:54:37.266Z,31.44
2017-08-29T06:55:37.305Z,31.55
2017-08-29T06:56:37.037Z,31.75
2017-08-29T06:57:37.788Z,31.98
2017-08-29T06:58:37.836Z,32.16
2017-08-29T06:59:37.533Z,32.24
2017-08-29T07:00:38.294Z,32.37
2017-08-29T07:01:38.367Z,32.38
2017-08-29T07:02:38.775Z,32.39
2017-08-29T07:03:38.826Z,32.23
2017-08-29T07:04:38.546Z,32.13
2017-08-29T07:05:38.335Z,32.06
2017-08-29T07:06:39.035Z,31.82
2017-08-29T07:07:39.069Z,31.94
2017-08-29T07:08:39.109Z,32.23
2017-08-29T07:09:39.151Z,32.62
2017-08-29T07:10:38.878Z,32.71
2017-08-29T07:11:39.586Z,32.65
2017-08-29T07:12:39.631Z,32.53
2017-08-29T07:13:39.680Z,32.74
2017-08-29T07:14:39.713Z,32.91
2017-08-29T07:15:39.763Z,33.06
2017-08-29T07:16:39.800Z,32.99
2017-08-29T07:17:39.556Z,32.87
2017-08-29T07:18:39.881Z,32.89
2017-08-29T07:19:39.917Z,32.89
2017-08-29T07:20:39.960Z,32.76
2017-08-29T07:21:39.998Z,32.98
2017-08-29T07:22:39.734Z,32.89
2017-08-29T07:23:39.846Z,32.87
2017-08-29T07:24:40.286Z,32.98
2017-08-29T07:25:40.298Z,33.03
2017-08-29T07:26:40.678Z,33.37
2017-08-29T07:27:41.086Z,33.46
2017-08-29T07:28:41.144Z,33.55
2017-08-29T07:29:40.855Z,33.68
2017-08-29T07:30:41.219Z,33.89
2017-08-29T07:31:40.946Z,34.21
2017-08-29T07:32:41.294Z,34.56
2017-08-29T07:33:41.341Z,34.84
2017-08-29T07:34:41.384Z,34.96
2017-08-29T07:35:41.420Z,34.94
2017-08-29T07:36:41.470Z,34.99
2017-08-29T07:37:41.178Z,35.08
2017-08-29T07:38:41.548Z,35.43
2017-08-29T07:39:41.270Z,35.45
2017-08-29T07:40:41.680Z,35.58
2017-08-29T07:41:41.721Z,35.79
2017-08-29T07:42:41.449Z,36.15
2017-08-29T07:43:42.167Z,36.53
2017-08-29T07:44:41.898Z,36.81
2017-08-29T07:45:42.258Z,37.36
2017-08-29T07:46:42.376Z,37.68
2017-08-29T07:47:42.003Z,37.65
2017-08-29T07:48:42.442Z,37.53
2017-08-29T07:49:42.466Z,37.49
2017-08-29T07:50:42.897Z,37.33
2017-08-29T07:51:42.948Z,37.27
2017-08-29T07:52:42.985Z,37.42
2017-08-29T07:53:43.039Z,37.54
2017-08-29T07:54:43.071Z,37.83
2017-08-29T07:55:43.114Z,38
2017-08-29T07:56:43.158Z,38
2017-08-29T07:57:43.207Z,37.91
2017-08-29T07:58:43.251Z,37.71
2017-08-29T07:59:42.973Z,37.53
2017-08-29T08:00:43.074Z,37.51
2017-08-29T08:01:44.139Z,37.39
2017-08-29T08:02:44.548Z,37.59
2017-08-29T08:03:44.587Z,37.74
2017-08-29T08:04:44.637Z,38.06
2017-08-29T08:05:44.667Z,38.43
2017-08-29T08:06:44.711Z,38.68
2017-08-29T08:07:44.768Z,38.9
2017-08-29T08:08:44.808Z,38.92
2017-08-29T08:09:44.853Z,38.74
2017-08-29T08:10:44.576Z,38.27
2017-08-29T08:11:44.605Z,38.08
2017-08-29T08:12:44.338Z,38.12
2017-08-29T08:13:45.087Z,38.35
2017-08-29T08:14:44.809Z,38.39
2017-08-29T08:15:45.164Z,38.18
2017-08-29T08:16:45.212Z,38.1
2017-08-29T08:17:45.262Z,37.94
2017-08-29T08:18:45.301Z,38.02
2017-08-29T08:19:45.350Z,38.18
2017-08-29T08:20:45.058Z,38.3
2017-08-29T08:21:45.438Z,38.46
2017-08-29T08:22:45.479Z,38.56
2017-08-29T08:23:44.883Z,38.61
2017-08-29T08:24:45.947Z,38.66
2017-08-29T08:25:45.661Z,38.65
2017-08-29T08:26:46.038Z,38.77
2017-08-29T08:27:46.075Z,39.2
2017-08-29T08:28:46.120Z,39.5
2017-08-29T08:29:46.170Z,39.69
2017-08-29T08:30:46.210Z,40.05
2017-08-29T08:31:45.612Z,40.2
2017-08-29T08:32:45.986Z,40.08
2017-08-29T08:33:46.347Z,40.02
2017-08-29T08:34:46.079Z,40.18
2017-08-29T08:35:46.448Z,40.21
2017-08-29T08:36:46.484Z,40.3
2017-08-29T08:37:46.205Z,40.27
2017-08-29T08:38:46.260Z,40.25
2017-08-29T08:39:46.695Z,40.34
2017-08-29T08:40:46.762Z,40.27
2017-08-29T08:41:46.459Z,40.28
2017-08-29T08:42:46.519Z,40.2
2017-08-29T08:43:46.877Z,40.25
2017-08-29T08:44:46.924Z,40.24
2017-08-29T08:45:46.649Z,40.34
2017-08-29T08:46:47.068Z,40.44
2017-08-29T08:47:47.120Z,40.59
2017-08-29T08:48:46.850Z,40.63
2017-08-29T08:49:47.598Z,40.48
2017-08-29T08:50:47.646Z,40.48
2017-08-29T08:51:47.041Z,40.48
2017-08-29T08:52:47.485Z,40.41
2017-08-29T08:53:47.869Z,40.56
2017-08-29T08:54:47.929Z,40.47
2017-08-29T08:55:48.307Z,40.4
2017-08-29T08:56:48.011Z,40.51
2017-08-29T08:57:48.390Z,40.59
2017-08-29T08:58:48.442Z,40.74
2017-08-29T08:59:48.488Z,40.75
2017-08-29T09:00:48.547Z,40.44
2017-08-29T09:01:47.953Z,40.41
2017-08-29T09:02:48.681Z,40.5
2017-08-29T09:03:48.410Z,40.31
2017-08-29T09:04:49.182Z,40.25
2017-08-29T09:05:48.907Z,39.94
2017-08-29T09:06:49.417Z,39.86
2017-08-29T09:07:49.493Z,39.68
2017-08-29T09:08:49.517Z,39.72
2017-08-29T09:09:49.245Z,39.59
2017-08-29T09:10:49.603Z,39.4
2017-08-29T09:11:49.326Z,38.78
2017-08-29T09:12:49.693Z,38.43
2017-08-29T09:13:49.439Z,38.5
2017-08-29T09:14:49.844Z,38.81
2017-08-29T09:15:49.579Z,39.06
2017-08-29T09:16:50.341Z,39.33
2017-08-29T09:17:50.065Z,39.5
2017-08-29T09:18:50.440Z,39.15
2017-08-29T09:19:50.157Z,38.96
2017-08-29T09:20:50.533Z,38.66
2017-08-29T09:21:50.568Z,38.78
2017-08-29T09:22:50.612Z,39.2
2017-08-29T09:23:50.660Z,39.64
2017-08-29T09:24:50.709Z,39.83
2017-08-29T09:25:50.761Z,39.72
2017-08-29T09:26:50.814Z,39.81
2017-08-29T09:27:50.852Z,40.01
2017-08-29T09:28:50.897Z,39.93
2017-08-29T09:29:50.612Z,39.96
2017-08-29T09:30:51.002Z,39.86
2017-08-29T09:31:51.048Z,39.69
2017-08-29T09:32:51.087Z,39.27
2017-08-29T09:33:51.143Z,38.9
2017-08-29T09:34:51.188Z,38.85
2017-08-29T09:35:50.588Z,39.08
2017-08-29T09:36:51.563Z,39
2017-08-29T09:37:51.077Z,39.16
2017-08-29T09:38:51.516Z,39.22
2017-08-29T09:39:51.556Z,39.19
2017-08-29T09:40:51.498Z,39.23
2017-08-29T09:41:51.655Z,39.22
2017-08-29T09:42:51.705Z,39.27
2017-08-29T09:43:51.757Z,38.99
2017-08-29T09:44:51.796Z,39.27
2017-08-29T09:45:51.877Z,39.3
2017-08-29T09:46:51.890Z,39.06
2017-08-29T09:47:51.994Z,39.12
2017-08-29T09:48:52.043Z,39.15
2017-08-29T09:49:52.091Z,39.16
2017-08-29T09:50:52.238Z,39.33
2017-08-29T09:51:52.186Z,39.64
2017-08-29T09:52:52.241Z,39.94
2017-08-29T09:53:52.343Z,40.27
2017-08-29T09:54:52.392Z,40.31
2017-08-29T09:55:52.497Z,40.41
2017-08-29T09:56:52.850Z,40.5
2017-08-29T09:57:52.899Z,40.81
2017-08-29T09:58:52.621Z,40.74
2017-08-29T09:59:52.995Z,40.47
2017-08-29T10:00:53.249Z,40.5
2017-08-29T10:01:53.089Z,40.18
2017-08-29T10:02:52.809Z,39.81
2017-08-29T10:03:52.874Z,39.79
2017-08-29T10:04:53.321Z,39.53
2017-08-29T10:05:54.073Z,39.65
2017-08-29T10:06:54.120Z,39.5
2017-08-29T10:07:54.238Z,38.85
2017-08-29T10:08:53.920Z,38.7
2017-08-29T10:09:54.263Z,38.81
2017-08-29T10:10:54.306Z,38.84
2017-08-29T10:11:54.021Z,38.96
2017-08-29T10:12:54.468Z,39.35
2017-08-29T10:13:54.893Z,39.35
2017-08-29T10:14:55.250Z,39.23
2017-08-29T10:15:55.288Z,39.4
2017-08-29T10:16:55.341Z,39.56
2017-08-29T10:17:55.380Z,39.38
2017-08-29T10:18:55.120Z,39.45
2017-08-29T10:19:55.480Z,39.2
2017-08-29T10:20:55.516Z,39.01
2017-08-29T10:21:55.250Z,39.15
2017-08-29T10:22:55.615Z,39.5
2017-08-29T10:23:55.331Z,39.72
2017-08-29T10:24:55.738Z,39.6
2017-08-29T10:25:55.751Z,39.59
2017-08-29T10:26:55.792Z,39.57
2017-08-29T10:27:55.962Z,39.56
2017-08-29T10:28:56.005Z,39.54
2017-08-29T10:29:56.061Z,39.69
2017-08-29T10:30:55.450Z,39.74
2017-08-29T10:31:56.515Z,39.65
2017-08-29T10:32:56.248Z,39.71
2017-08-29T10:33:56.289Z,39.83
2017-08-29T10:34:56.328Z,39.65
2017-08-29T10:35:56.353Z,39.54
2017-08-29T10:36:56.737Z,39.57
2017-08-29T10:37:56.769Z,39.68
2017-08-29T10:38:56.500Z,39.67
2017-08-29T10:39:57.264Z,39.79
2017-08-29T10:40:57.294Z,40.16
2017-08-29T10:41:57.345Z,40.3
2017-08-29T10:42:57.065Z,40.12
2017-08-29T10:43:57.428Z,40.03
2017-08-29T10:44:57.468Z,39.9
2017-08-29T10:45:57.175Z,39.49
2017-08-29T10:46:57.217Z,38.96
2017-08-29T10:47:57.265Z,38.77
2017-08-29T10:48:57.634Z,38.81
2017-08-29T10:49:57.671Z,38.55
2017-08-29T10:50:57.071Z,37.99
2017-08-29T10:51:57.823Z,37.65
2017-08-29T10:52:57.865Z,37.22
2017-08-29T10:53:57.901Z,37.24
2017-08-29T10:54:57.946Z,37.24
2017-08-29T10:55:57.982Z,37.23
2017-08-29T10:56:57.375Z,37.57
2017-08-29T10:57:58.089Z,38.05
2017-08-29T10:58:57.803Z,38.4
2017-08-29T10:59:58.154Z,38.93
2017-08-29T11:00:58.195Z,38.92
2017-08-29T11:01:58.235Z,38.81
2017-08-29T11:02:58.271Z,38.55
2017-08-29T11:03:58.011Z,38.46
2017-08-29T11:04:58.357Z,38.21
2017-08-29T11:05:58.494Z,38.37
2017-08-29T11:06:58.445Z,38.43
2017-08-29T11:07:58.817Z,38.37
2017-08-29T11:08:58.530Z,38.46
2017-08-29T11:09:58.573Z,38.42
2017-08-29T11:10:58.433Z,38.27
2017-08-29T11:11:58.648Z,38.02
2017-08-29T11:12:58.427Z,38
2017-08-29T11:13:59.476Z,38.02
2017-08-29T11:14:59.523Z,38.44
2017-08-29T11:15:59.561Z,38.81
2017-08-29T11:16:59.601Z,39.18
2017-08-29T11:17:59.650Z,39.67
2017-08-29T11:18:59.697Z,40.2
2017-08-29T11:19:59.731Z,40.52
2017-08-29T11:20:59.769Z,40.94
2017-08-29T11:21:59.805Z,41.08
2017-08-29T11:22:59.853Z,40.91
2017-08-29T11:23:59.261Z,41.06
2017-08-29T11:25:00.028Z,41.16
2017-08-29T11:26:00.022Z,41.37
2017-08-29T11:27:00.425Z,41.34
2017-08-29T11:28:00.470Z,41.01
2017-08-29T11:29:00.506Z,40.89
2017-08-29T11:30:00.554Z,40.52
2017-08-29T11:30:59.942Z,40.24
2017-08-29T11:32:01.001Z,40.41
2017-08-29T11:33:00.698Z,40.45
2017-08-29T11:34:01.086Z,40.3
2017-08-29T11:35:01.458Z,40.24
2017-08-29T11:36:01.176Z,40.06
2017-08-29T11:37:01.667Z,39.71
2017-08-29T11:38:01.700Z,39.52
2017-08-29T11:39:01.437Z,39.38
2017-08-29T11:40:02.182Z,39.34
2017-08-29T11:41:02.321Z,39.18
2017-08-29T11:42:02.669Z,38.81
2017-08-29T11:43:02.064Z,38.64
2017-08-29T11:44:02.857Z,37.74
2017-08-29T11:45:02.972Z,37.14
2017-08-29T11:46:02.912Z,36.61
2017-08-29T11:47:02.931Z,35.79
2017-08-29T11:48:02.962Z,34.86
2017-08-29T11:49:02.997Z,33.73
2017-08-29T11:50:02.790Z,32.62
2017-08-29T11:51:03.081Z,31.8
2017-08-29T11:52:03.123Z,31.22
2017-08-29T11:53:03.162Z,30.63
2017-08-29T11:54:03.200Z,30.06
2017-08-29T11:55:03.246Z,29.66
2017-08-29T11:56:02.754Z,29.26
2017-08-29T11:57:03.180Z,29.01
2017-08-29T11:58:03.927Z,28.58
2017-08-29T11:59:03.962Z,28.41
2017-08-29T12:00:03.722Z,28.24
2017-08-29T12:01:04.145Z,27.99
2017-08-29T12:02:04.511Z,27.74
2017-08-29T12:03:04.557Z,27.49
2017-08-29T12:04:04.583Z,27.36
2017-08-29T12:05:04.690Z,27.08
2017-08-29T12:06:04.348Z,27.01
2017-08-29T12:07:04.710Z,27.04
2017-08-29T12:08:04.866Z,27.01
2017-08-29T12:09:04.471Z,26.94
2017-08-29T12:10:04.880Z,26.86
2017-08-29T12:11:04.915Z,26.87
2017-08-29T12:12:05.351Z,26.87
2017-08-29T12:13:05.623Z,26.81
2017-08-29T12:14:05.458Z,26.71
2017-08-29T12:15:05.516Z,26.68
2017-08-29T12:16:05.549Z,26.6
2017-08-29T12:17:05.540Z,26.53
2017-08-29T12:18:05.263Z,26.49
2017-08-29T12:19:05.408Z,26.49
2017-08-29T12:20:05.981Z,26.47
2017-08-29T12:21:06.200Z,26.39
2017-08-29T12:22:05.876Z,26.37
2017-08-29T12:23:06.640Z,26.31
2017-08-29T12:24:06.358Z,26.35
2017-08-29T12:25:07.388Z,26.3
2017-08-29T12:26:06.760Z,26.38
2017-08-29T12:27:07.189Z,26.38
2017-08-29T12:28:07.230Z,26.38
2017-08-29T12:29:07.299Z,26.35
2017-08-29T12:30:07.412Z,26.52
2017-08-29T12:31:07.437Z,26.47
2017-08-29T12:32:07.852Z,26.5
2017-08-29T12:33:07.853Z,26.5
2017-08-29T12:34:08.229Z,26.49
2017-08-29T12:35:08.277Z,26.41
2017-08-29T12:36:07.985Z,26.49
2017-08-29T12:37:08.801Z,26.42
2017-08-29T12:38:08.455Z,26.52
2017-08-29T12:39:08.804Z,26.38
2017-08-29T12:40:08.863Z,26.39
2017-08-29T12:41:08.956Z,26.39
2017-08-29T12:42:08.671Z,26.31
2017-08-29T12:43:08.516Z,26.34
2017-08-29T12:44:09.274Z,26.32
2017-08-29T12:45:09.675Z,26.34
2017-08-29T12:46:09.358Z,26.3
2017-08-29T12:47:09.122Z,26.34
2017-08-29T12:48:09.489Z,26.23
2017-08-29T12:49:10.226Z,26.32
2017-08-29T12:50:09.939Z,26.23
2017-08-29T12:51:10.667Z,26.19
2017-08-29T12:52:10.699Z,26.07
2017-08-29T12:53:10.403Z,26
2017-08-29T12:54:10.815Z,25.99
2017-08-29T12:55:11.186Z,25.91
2017-08-29T12:56:10.912Z,25.97
2017-08-29T12:57:11.661Z,25.96